sensor_id;sensor_type;location;lat;lon;timestamp;temperature;humidity
25688;DHT22;17407;51.120;3.702;2024-03-02T00:09:48;8.10;99.90
25688;DHT22;17407;51.120;3.702;2024-03-02T00:12:15;8.10;99.90
25688;DHT22;17407;51.120;3.702;2024-03-02T00:14:42;8.20;99.90
25688;DHT22;17407;51.120;3.702;2024-03-02T00:17:25;8.10;99.90
25688;DHT22;17407;51.120;3.702;2024-03-02T00:19:51;8.10;99.90
25688;DHT22;17407;51.120;3.702;2024-03-02T00:22:18;8.10;99.90
25688;DHT22;17407;51.120;3.702;2024-03-02T00:24:43;8.10;99.90
25688;DHT22;17407;51.120;3.702;2024-03-02T00:27:13;8.10;99.90
25688;DHT22;17407;51.120;3.702;2024-03-02T00:29:40;8.10;99.90
25688;DHT22;17407;51.120;3.702;2024-03-02T00:32:17;8.10;99.90
25688;DHT22;17407;51.120;3.702;2024-03-02T00:34:42;8.20;99.90
25688;DHT22;17407;51.120;3.702;2024-03-02T00:37:08;8.20;99.90
25688;DHT22;17407;51.120;3.702;2024-03-02T00:39:34;8.20;99.90
25688;DHT22;17407;51.120;3.702;2024-03-02T00:42:01;8.20;99.90
25688;DHT22;17407;51.120;3.702;2024-03-02T00:44:26;8.20;99.90
25688;DHT22;17407;51.120;3.702;2024-03-02T00:46:53;8.10;99.90
25688;DHT22;17407;51.120;3.702;2024-03-02T00:49:22;8.10;99.90
25688;DHT22;17407;51.120;3.702;2024-03-02T00:51:53;8.10;99.90
25688;DHT22;17407;51.120;3.702;2024-03-02T00:54:25;8.00;99.90
25688;DHT22;17407;51.120;3.702;2024-03-02T00:56:54;8.10;99.90
25688;DHT22;17407;51.120;3.702;2024-03-02T00:59:22;8.10;99.90
25688;DHT22;17407;51.120;3.702;2024-03-02T01:01:48;8.20;99.90
25688;DHT22;17407;51.120;3.702;2024-03-02T01:04:15;8.20;99.90
25688;DHT22;17407;51.120;3.702;2024-03-02T01:06:44;8.30;99.90
25688;DHT22;17407;51.120;3.702;2024-03-02T01:09:11;8.40;99.90
25688;DHT22;17407;51.120;3.702;2024-03-02T01:11:37;8.20;99.90
25688;DHT22;17407;51.120;3.702;2024-03-02T01:14:03;8.20;99.90
25688;DHT22;17407;51.120;3.702;2024-03-02T01:16:29;8.30;99.90
25688;DHT22;17407;51.120;3.702;2024-03-02T01:18:55;8.20;99.90
25688;DHT22;17407;51.120;3.702;2024-03-02T01:21:20;8.20;99.90
25688;DHT22;17407;51.120;3.702;2024-03-02T01:23:46;8.20;99.90
25688;DHT22;17407;51.120;3.702;2024-03-02T01:26:12;8.20;99.90
25688;DHT22;17407;51.120;3.702;2024-03-02T01:28:37;8.30;99.90
25688;DHT22;17407;51.120;3.702;2024-03-02T01:31:03;8.20;99.90
25688;DHT22;17407;51.120;3.702;2024-03-02T01:33:29;8.10;99.90
25688;DHT22;17407;51.120;3.702;2024-03-02T01:35:54;8.10;99.90
25688;DHT22;17407;51.120;3.702;2024-03-02T01:38:20;8.00;99.90
25688;DHT22;17407;51.120;3.702;2024-03-02T01:40:46;8.20;99.90
25688;DHT22;17407;51.120;3.702;2024-03-02T01:43:12;8.20;99.90
25688;DHT22;17407;51.120;3.702;2024-03-02T01:45:37;8.10;99.90
25688;DHT22;17407;51.120;3.702;2024-03-02T01:48:06;8.10;99.90
25688;DHT22;17407;51.120;3.702;2024-03-02T01:50:33;8.00;99.90
25688;DHT22;17407;51.120;3.702;2024-03-02T01:53:00;8.00;99.90
25688;DHT22;17407;51.120;3.702;2024-03-02T01:55:26;7.90;99.90
25688;DHT22;17407;51.120;3.702;2024-03-02T01:57:52;7.90;99.90
25688;DHT22;17407;51.120;3.702;2024-03-02T02:00:19;7.90;99.90
25688;DHT22;17407;51.120;3.702;2024-03-02T02:02:46;7.90;99.90
25688;DHT22;17407;51.120;3.702;2024-03-02T02:05:11;7.90;99.90
25688;DHT22;17407;51.120;3.702;2024-03-02T02:07:37;7.90;99.90
25688;DHT22;17407;51.120;3.702;2024-03-02T02:10:03;8.00;99.90
25688;DHT22;17407;51.120;3.702;2024-03-02T02:12:29;8.00;99.90
25688;DHT22;17407;51.120;3.702;2024-03-02T02:14:55;8.00;99.90
25688;DHT22;17407;51.120;3.702;2024-03-02T02:17:21;8.00;99.90
25688;DHT22;17407;51.120;3.702;2024-03-02T02:19:46;8.00;99.90
25688;DHT22;17407;51.120;3.702;2024-03-02T02:22:13;7.90;99.90
25688;DHT22;17407;51.120;3.702;2024-03-02T02:24:42;7.90;99.90
25688;DHT22;17407;51.120;3.702;2024-03-02T02:27:08;7.90;99.90
25688;DHT22;17407;51.120;3.702;2024-03-02T02:29:34;8.00;99.90
25688;DHT22;17407;51.120;3.702;2024-03-02T02:32:00;7.80;99.90
25688;DHT22;17407;51.120;3.702;2024-03-02T02:34:26;7.80;99.90
25688;DHT22;17407;51.120;3.702;2024-03-02T02:36:51;7.80;99.90
25688;DHT22;17407;51.120;3.702;2024-03-02T02:39:20;7.80;99.90
25688;DHT22;17407;51.120;3.702;2024-03-02T02:41:46;7.90;99.90
25688;DHT22;17407;51.120;3.702;2024-03-02T02:44:12;7.90;99.90
25688;DHT22;17407;51.120;3.702;2024-03-02T02:46:39;7.90;99.90
25688;DHT22;17407;51.120;3.702;2024-03-02T02:49:04;7.90;99.90
25688;DHT22;17407;51.120;3.702;2024-03-02T02:51:30;7.70;99.90
25688;DHT22;17407;51.120;3.702;2024-03-02T02:53:56;7.70;99.90
25688;DHT22;17407;51.120;3.702;2024-03-02T02:56:22;7.90;99.90
25688;DHT22;17407;51.120;3.702;2024-03-02T02:58:47;7.80;99.90
25688;DHT22;17407;51.120;3.702;2024-03-02T03:01:14;7.70;99.90
25688;DHT22;17407;51.120;3.702;2024-03-02T03:03:40;7.70;99.90
25688;DHT22;17407;51.120;3.702;2024-03-02T03:06:06;7.70;99.90
25688;DHT22;17407;51.120;3.702;2024-03-02T03:08:31;7.70;99.90
25688;DHT22;17407;51.120;3.702;2024-03-02T03:10:57;7.80;99.90
25688;DHT22;17407;51.120;3.702;2024-03-02T03:13:23;7.70;99.90
25688;DHT22;17407;51.120;3.702;2024-03-02T03:15:48;7.70;99.90
25688;DHT22;17407;51.120;3.702;2024-03-02T03:18:14;7.70;99.90
25688;DHT22;17407;51.120;3.702;2024-03-02T03:20:40;7.70;99.90
25688;DHT22;17407;51.120;3.702;2024-03-02T03:23:05;7.60;99.90
25688;DHT22;17407;51.120;3.702;2024-03-02T03:25:31;7.60;99.90
25688;DHT22;17407;51.120;3.702;2024-03-02T03:27:57;7.70;99.90
25688;DHT22;17407;51.120;3.702;2024-03-02T03:30:22;7.70;99.90
25688;DHT22;17407;51.120;3.702;2024-03-02T03:32:48;7.70;99.90
25688;DHT22;17407;51.120;3.702;2024-03-02T03:35:14;7.60;99.90
25688;DHT22;17407;51.120;3.702;2024-03-02T03:37:44;7.60;99.90
25688;DHT22;17407;51.120;3.702;2024-03-02T03:40:10;7.60;99.90
25688;DHT22;17407;51.120;3.702;2024-03-02T03:42:36;7.60;99.90
25688;DHT22;17407;51.120;3.702;2024-03-02T03:45:03;7.70;99.90
25688;DHT22;17407;51.120;3.702;2024-03-02T03:47:28;7.60;99.90
25688;DHT22;17407;51.120;3.702;2024-03-02T03:49:54;7.50;99.90
25688;DHT22;17407;51.120;3.702;2024-03-02T03:52:19;7.60;99.90
25688;DHT22;17407;51.120;3.702;2024-03-02T03:54:46;7.70;99.90
25688;DHT22;17407;51.120;3.702;2024-03-02T03:57:12;7.60;99.90
25688;DHT22;17407;51.120;3.702;2024-03-02T03:59:37;7.70;99.90
25688;DHT22;17407;51.120;3.702;2024-03-02T04:02:03;7.60;99.90
25688;DHT22;17407;51.120;3.702;2024-03-02T04:04:29;7.50;99.90
25688;DHT22;17407;51.120;3.702;2024-03-02T04:06:55;7.50;99.90
25688;DHT22;17407;51.120;3.702;2024-03-02T04:09:21;7.60;99.90
25688;DHT22;17407;51.120;3.702;2024-03-02T04:11:46;7.60;99.90
25688;DHT22;17407;51.120;3.702;2024-03-02T04:14:12;7.50;99.90
25688;DHT22;17407;51.120;3.702;2024-03-02T04:16:38;7.50;99.90
25688;DHT22;17407;51.120;3.702;2024-03-02T04:19:04;7.50;99.90
25688;DHT22;17407;51.120;3.702;2024-03-02T04:21:30;7.70;99.90
25688;DHT22;17407;51.120;3.702;2024-03-02T04:23:56;7.50;99.90
25688;DHT22;17407;51.120;3.702;2024-03-02T04:26:25;7.50;99.90
25688;DHT22;17407;51.120;3.702;2024-03-02T04:28:54;7.40;99.90
25688;DHT22;17407;51.120;3.702;2024-03-02T04:31:20;7.40;99.90
25688;DHT22;17407;51.120;3.702;2024-03-02T04:33:46;7.40;99.90
25688;DHT22;17407;51.120;3.702;2024-03-02T04:36:12;7.40;99.90
25688;DHT22;17407;51.120;3.702;2024-03-02T04:38:38;7.40;99.90
25688;DHT22;17407;51.120;3.702;2024-03-02T04:41:07;7.50;99.90
25688;DHT22;17407;51.120;3.702;2024-03-02T04:43:33;7.60;99.90
25688;DHT22;17407;51.120;3.702;2024-03-02T04:45:59;7.50;99.90
25688;DHT22;17407;51.120;3.702;2024-03-02T04:48:25;7.40;99.90
25688;DHT22;17407;51.120;3.702;2024-03-02T04:50:51;7.50;99.90
25688;DHT22;17407;51.120;3.702;2024-03-02T04:53:17;7.40;99.90
25688;DHT22;17407;51.120;3.702;2024-03-02T04:55:42;7.50;99.90
25688;DHT22;17407;51.120;3.702;2024-03-02T04:58:08;7.40;99.90
25688;DHT22;17407;51.120;3.702;2024-03-02T05:00:34;7.40;99.90
25688;DHT22;17407;51.120;3.702;2024-03-02T05:03:00;7.40;99.90
25688;DHT22;17407;51.120;3.702;2024-03-02T05:05:25;7.40;99.90
25688;DHT22;17407;51.120;3.702;2024-03-02T05:07:51;7.50;99.90
25688;DHT22;17407;51.120;3.702;2024-03-02T05:10:17;7.70;99.90
25688;DHT22;17407;51.120;3.702;2024-03-02T05:12:43;7.50;99.90
25688;DHT22;17407;51.120;3.702;2024-03-02T05:15:13;7.50;99.90
25688;DHT22;17407;51.120;3.702;2024-03-02T05:17:40;7.60;99.90
25688;DHT22;17407;51.120;3.702;2024-03-02T05:20:07;7.40;99.90
25688;DHT22;17407;51.120;3.702;2024-03-02T05:22:33;7.50;99.90
25688;DHT22;17407;51.120;3.702;2024-03-02T05:25:00;7.40;99.90
25688;DHT22;17407;51.120;3.702;2024-03-02T05:27:26;7.50;99.90
25688;DHT22;17407;51.120;3.702;2024-03-02T05:29:52;7.50;99.90
25688;DHT22;17407;51.120;3.702;2024-03-02T05:32:18;7.50;99.90
25688;DHT22;17407;51.120;3.702;2024-03-02T05:34:43;7.50;99.90
25688;DHT22;17407;51.120;3.702;2024-03-02T05:37:09;7.60;99.90
25688;DHT22;17407;51.120;3.702;2024-03-02T05:39:35;7.50;99.90
25688;DHT22;17407;51.120;3.702;2024-03-02T05:42:00;7.40;99.90
25688;DHT22;17407;51.120;3.702;2024-03-02T05:44:26;7.40;99.90
25688;DHT22;17407;51.120;3.702;2024-03-02T05:46:52;7.50;99.90
25688;DHT22;17407;51.120;3.702;2024-03-02T05:49:18;7.40;99.90
25688;DHT22;17407;51.120;3.702;2024-03-02T05:51:43;7.40;99.90
25688;DHT22;17407;51.120;3.702;2024-03-02T05:54:09;7.30;99.90
25688;DHT22;17407;51.120;3.702;2024-03-02T05:56:35;7.40;99.90
25688;DHT22;17407;51.120;3.702;2024-03-02T05:59:00;7.30;99.90
25688;DHT22;17407;51.120;3.702;2024-03-02T06:01:48;7.40;99.90
25688;DHT22;17407;51.120;3.702;2024-03-02T06:04:16;7.30;99.90
25688;DHT22;17407;51.120;3.702;2024-03-02T06:06:42;7.40;99.90
25688;DHT22;17407;51.120;3.702;2024-03-02T06:09:08;7.40;99.90
25688;DHT22;17407;51.120;3.702;2024-03-02T06:11:37;7.30;99.90
25688;DHT22;17407;51.120;3.702;2024-03-02T06:14:04;7.30;99.90
25688;DHT22;17407;51.120;3.702;2024-03-02T06:16:29;7.30;99.90
25688;DHT22;17407;51.120;3.702;2024-03-02T06:18:58;7.30;99.90
25688;DHT22;17407;51.120;3.702;2024-03-02T06:21:24;7.20;99.90
25688;DHT22;17407;51.120;3.702;2024-03-02T06:23:50;7.20;99.90
25688;DHT22;17407;51.120;3.702;2024-03-02T06:26:15;7.20;99.90
25688;DHT22;17407;51.120;3.702;2024-03-02T06:28:41;7.20;99.90
25688;DHT22;17407;51.120;3.702;2024-03-02T06:31:07;7.20;99.90
25688;DHT22;17407;51.120;3.702;2024-03-02T06:33:32;7.20;99.90
25688;DHT22;17407;51.120;3.702;2024-03-02T06:35:58;7.20;99.90
25688;DHT22;17407;51.120;3.702;2024-03-02T06:38:23;7.30;99.90
25688;DHT22;17407;51.120;3.702;2024-03-02T06:40:49;7.40;99.90
25688;DHT22;17407;51.120;3.702;2024-03-02T06:43:15;7.20;99.90
25688;DHT22;17407;51.120;3.702;2024-03-02T06:45:40;7.30;99.90
25688;DHT22;17407;51.120;3.702;2024-03-02T06:48:07;7.30;99.90
25688;DHT22;17407;51.120;3.702;2024-03-02T06:50:32;7.10;99.90
25688;DHT22;17407;51.120;3.702;2024-03-02T06:52:58;7.20;99.90
25688;DHT22;17407;51.120;3.702;2024-03-02T06:57:59;7.10;99.90
